Time;durP1;ratioP1;P1;durP2;ratioP2;P2;SDS_P1;SDS_P2;PMS_P1;PMS_P2;Temp;Humidity;BMP_temperature;BMP_pressure;BME280_temperature;BME280_humidity;BME280_pressure;Samples;Min_cycle;Max_cycle;Signal;HPM_P1;HPM_P2
2021/10/21 00:01:49;;;;;;;7.00;3.23;;;15.70;1.00;;;;;;5017503;28;20601;-86
2021/10/21 00:04:15;;;;;;;5.30;3.63;;;15.80;1.00;;;;;;5022693;28;20723;-87
2021/10/21 00:06:41;;;;;;;4.40;3.40;;;15.70;1.00;;;;;;5022508;28;20197;-87
2021/10/21 00:09:06;;;;;;;3.50;2.80;;;15.80;1.00;;;;;;5024754;28;20961;-90
2021/10/21 00:11:33;;;;;;;5.10;3.47;;;15.80;1.00;;;;;;5032906;28;20488;-89
2021/10/21 00:13:58;;;;;;;6.50;3.47;;;15.80;1.00;;;;;;5025375;28;20245;-88
2021/10/21 00:16:24;;;;;;;5.77;3.17;;;15.80;1.00;;;;;;5023152;28;21067;-89
2021/10/21 00:18:50;;;;;;;6.90;3.20;;;15.80;1.00;;;;;;5028477;28;20317;-87
2021/10/21 00:21:17;;;;;;;5.67;3.27;;;15.80;1.00;;;;;;5029033;28;20198;-90
2021/10/21 00:23:42;;;;;;;4.10;2.70;;;15.80;1.00;;;;;;5030878;28;20754;-90
2021/10/21 00:26:08;;;;;;;6.80;3.50;;;15.70;1.00;;;;;;5030596;28;20467;-93
2021/10/21 00:28:35;;;;;;;8.47;3.33;;;15.40;1.00;;;;;;5036084;28;20201;-89
2021/10/21 00:31:02;;;;;;;5.73;3.57;;;15.30;67.60;;;;;;5025660;28;20195;-90
2021/10/21 00:33:28;;;;;;;6.97;3.60;;;15.20;90.80;;;;;;5028463;28;20480;-88
2021/10/21 00:35:54;;;;;;;6.70;3.63;;;15.10;99.90;;;;;;5029823;28;20953;-88
2021/10/21 00:38:19;;;;;;;4.27;3.60;;;15.00;99.90;;;;;;5029505;28;20249;-89
2021/10/21 00:40:45;;;;;;;6.30;3.70;;;14.90;99.90;;;;;;5023661;28;20306;-88
2021/10/21 00:43:11;;;;;;;6.30;4.17;;;14.80;99.90;;;;;;5028577;28;20211;-90
2021/10/21 00:45:37;;;;;;;10.57;4.47;;;14.80;99.90;;;;;;5028332;28;20213;-89
2021/10/21 00:48:03;;;;;;;9.40;4.33;;;14.80;99.90;;;;;;5035251;28;20457;-91
2021/10/21 00:50:31;;;;;;;9.07;4.20;;;14.70;1.00;;;;;;5028907;28;20550;-90
2021/10/21 00:52:57;;;;;;;9.43;4.30;;;14.60;99.90;;;;;;5031888;28;20483;-92
2021/10/21 00:55:24;;;;;;;11.57;3.90;;;14.60;99.90;;;;;;5031160;28;20463;-93
2021/10/21 00:57:50;;;;;;;6.57;3.57;;;14.50;99.90;;;;;;5032234;28;20485;-91
2021/10/21 01:00:16;;;;;;;5.33;3.67;;;14.50;99.90;;;;;;5031927;28;20470;-92
2021/10/21 01:02:42;;;;;;;6.60;3.80;;;14.50;99.90;;;;;;5035354;28;20968;-90
2021/10/21 01:05:08;;;;;;;3.60;2.97;;;14.40;99.90;;;;;;5035583;28;20449;-93
2021/10/21 01:07:35;;;;;;;4.83;2.73;;;14.50;1.00;;;;;;5037203;28;20281;-92
2021/10/21 01:10:04;;;;;;;7.30;3.63;;;14.50;1.00;;;;;;5034923;28;20442;-94
2021/10/21 01:12:30;;;;;;;4.60;2.90;;;14.40;99.90;;;;;;5033427;28;20461;-93
2021/10/21 01:15:17;;;;;;;5.00;2.83;;;14.30;1.00;;;;;;5033304;28;20453;-92
2021/10/21 01:17:43;;;;;;;5.20;2.73;;;14.30;1.00;;;;;;5035325;28;20242;-88
2021/10/21 01:20:11;;;;;;;5.90;2.70;;;14.40;1.00;;;;;;5034502;28;20524;-93
2021/10/21 01:22:38;;;;;;;4.60;2.67;;;14.40;97.10;;;;;;5034713;28;20241;-91
2021/10/21 01:25:04;;;;;;;5.43;2.80;;;14.40;1.00;;;;;;5029544;28;20454;-91
2021/10/21 01:27:30;;;;;;;3.87;2.73;;;14.50;99.90;;;;;;5027496;28;20457;-92
2021/10/21 01:29:56;;;;;;;3.63;2.60;;;14.40;99.90;;;;;;5030821;28;21219;-93
2021/10/21 01:32:26;;;;;;;4.20;2.67;;;14.50;1.00;;;;;;5032441;28;20830;-89
2021/10/21 01:34:53;;;;;;;4.67;2.33;;;14.40;1.00;;;;;;5033954;28;20183;-88
2021/10/21 01:37:19;;;;;;;7.40;2.37;;;14.40;99.90;;;;;;5027600;28;20623;-87
2021/10/21 01:39:45;;;;;;;7.03;2.80;;;14.40;1.00;;;;;;5031945;28;20568;-92
2021/10/21 01:42:11;;;;;;;5.57;2.87;;;14.40;1.00;;;;;;5031933;28;20195;-93
2021/10/21 01:44:36;;;;;;;3.93;2.60;;;14.40;1.00;;;;;;5039955;28;20807;-91
2021/10/21 01:47:02;;;;;;;3.83;2.20;;;14.40;99.90;;;;;;5038028;28;20726;-92
2021/10/21 01:49:28;;;;;;;4.17;2.57;;;14.30;99.90;;;;;;5040653;28;20183;-93
2021/10/21 01:51:54;;;;;;;3.00;2.20;;;14.30;99.90;;;;;;5041037;28;20453;-93
2021/10/21 01:54:20;;;;;;;3.30;1.70;;;14.20;99.90;;;;;;5040258;28;20249;-92
2021/10/21 01:56:46;;;;;;;3.73;1.70;;;14.10;99.90;;;;;;5041747;28;20457;-93
2021/10/21 01:59:11;;;;;;;2.70;2.03;;;14.10;68.10;;;;;;5039213;28;20195;-93
2021/10/21 02:01:37;;;;;;;3.23;1.30;;;14.00;23.20;;;;;;5034866;28;20515;-91
2021/10/21 02:04:04;;;;;;;3.93;1.53;;;14.00;1.00;;;;;;5032565;28;21095;-93
2021/10/21 02:06:30;;;;;;;2.33;1.13;;;13.90;1.00;;;;;;5037757;28;20180;-92
2021/10/21 02:08:55;;;;;;;2.37;1.20;;;13.70;1.00;;;;;;5040694;28;20848;-93
2021/10/21 02:11:21;;;;;;;3.80;1.23;;;13.70;1.00;;;;;;5027725;28;20187;-89
2021/10/21 02:13:47;;;;;;;3.77;1.23;;;13.60;1.00;;;;;;5037130;28;20283;-93
2021/10/21 02:16:17;;;;;;;2.17;0.90;;;13.50;1.00;;;;;;5035661;28;20203;-91
2021/10/21 02:18:42;;;;;;;3.17;1.20;;;13.60;1.00;;;;;;5037691;28;20842;-89
2021/10/21 02:21:08;;;;;;;2.70;0.93;;;13.70;1.00;;;;;;5034695;28;20449;-91
2021/10/21 02:23:34;;;;;;;7.20;1.07;;;13.60;1.00;;;;;;5035652;28;20199;-91
2021/10/21 02:25:59;;;;;;;2.20;1.23;;;13.50;1.00;;;;;;5031816;28;20631;-89
2021/10/21 02:28:25;;;;;;;4.97;1.00;;;13.40;1.00;;;;;;5044658;28;20557;-92
2021/10/21 02:30:51;;;;;;;3.50;1.10;;;13.40;1.00;;;;;;5033332;28;20207;-90
2021/10/21 02:33:17;;;;;;;3.33;1.60;;;13.40;1.00;;;;;;5037304;28;20187;-93
2021/10/21 02:35:43;;;;;;;4.93;0.90;;;13.20;1.00;;;;;;5037471;28;20457;-93
2021/10/21 02:38:11;;;;;;;4.20;1.00;;;13.30;1.00;;;;;;5055090;28;21281;-92
2021/10/21 02:40:36;;;;;;;2.60;0.90;;;13.30;1.00;;;;;;5032182;28;20544;-93
2021/10/21 02:43:12;;;;;;;3.27;0.97;;;13.30;1.00;;;;;;5035151;28;20525;-87
2021/10/21 02:45:39;;;;;;;2.70;1.03;;;13.40;1.00;;;;;;5033246;28;20202;-92
2021/10/21 02:48:05;;;;;;;7.33;1.87;;;13.30;1.00;;;;;;5037556;28;20450;-90
2021/10/21 02:50:31;;;;;;;4.90;1.67;;;13.30;1.00;;;;;;5034848;28;20800;-90
2021/10/21 02:52:57;;;;;;;6.40;1.73;;;13.20;1.00;;;;;;5034457;28;20543;-86
2021/10/21 02:55:23;;;;;;;3.57;0.93;;;13.20;1.00;;;;;;5028015;28;20738;-88
2021/10/21 02:57:48;;;;;;;5.20;0.97;;;13.20;1.00;;;;;;5025839;28;20221;-90
2021/10/21 03:00:14;;;;;;;6.33;1.30;;;13.20;1.00;;;;;;5029093;28;20434;-89
2021/10/21 03:02:40;;;;;;;2.77;0.87;;;13.20;1.00;;;;;;5027661;28;20183;-89
2021/10/21 03:05:06;;;;;;;4.40;1.07;;;13.20;1.00;;;;;;5033402;28;20226;-93
2021/10/21 03:07:32;;;;;;;7.90;1.30;;;13.20;1.00;;;;;;5032986;28;20530;-89
2021/10/21 03:09:57;;;;;;;5.30;1.20;;;13.20;1.00;;;;;;5028944;28;20456;-89
2021/10/21 03:12:23;;;;;;;8.97;2.73;;;13.20;1.00;;;;;;5029850;28;20191;-89
2021/10/21 03:14:49;;;;;;;6.97;1.10;;;13.20;1.00;;;;;;5031610;28;20180;-88
2021/10/21 03:17:14;;;;;;;10.93;1.40;;;13.20;1.00;;;;;;5032701;28;20219;-88
2021/10/21 03:19:40;;;;;;;5.60;1.60;;;13.20;1.00;;;;;;5018310;28;20266;-91
2021/10/21 03:22:06;;;;;;;3.93;1.10;;;13.10;1.00;;;;;;5025796;28;20216;-89
2021/10/21 03:24:31;;;;;;;7.07;1.37;;;13.20;1.00;;;;;;5029870;28;20187;-86
2021/10/21 03:26:57;;;;;;;4.50;0.90;;;13.10;1.00;;;;;;5026265;28;20232;-88
2021/10/21 03:29:23;;;;;;;5.80;0.90;;;13.10;1.00;;;;;;5028603;28;20179;-89
2021/10/21 03:31:48;;;;;;;4.50;1.30;;;13.10;1.00;;;;;;5025585;28;20202;-90
2021/10/21 03:34:14;;;;;;;5.07;0.90;;;13.10;1.00;;;;;;5030076;28;20218;-87
2021/10/21 03:36:40;;;;;;;5.43;1.37;;;13.00;1.00;;;;;;5028722;28;20226;-89
2021/10/21 03:39:06;;;;;;;5.87;1.27;;;12.80;1.00;;;;;;5030396;28;20244;-89
2021/10/21 03:41:32;;;;;;;4.70;1.20;;;12.80;1.00;;;;;;5029838;28;20576;-91
2021/10/21 03:43:57;;;;;;;7.43;1.53;;;12.70;1.00;;;;;;5029324;28;20583;-90
2021/10/21 03:46:23;;;;;;;2.27;1.13;;;12.60;1.00;;;;;;5029192;28;20469;-89
2021/10/21 03:48:49;;;;;;;5.10;0.90;;;12.60;1.00;;;;;;5024503;28;20191;-91
2021/10/21 03:51:15;;;;;;;3.10;1.10;;;12.50;1.00;;;;;;5028793;28;20179;-91
2021/10/21 03:53:41;;;;;;;10.30;1.47;;;12.50;1.00;;;;;;5034473;28;20186;-87
2021/10/21 03:56:09;;;;;;;4.30;0.93;;;12.50;1.00;;;;;;5031033;28;20446;-89
2021/10/21 03:58:37;;;;;;;3.40;1.00;;;12.60;1.00;;;;;;5028651;28;20465;-91
2021/10/21 04:01:03;;;;;;;7.20;1.23;;;12.70;1.00;;;;;;5026135;28;21498;-87
2021/10/21 04:03:29;;;;;;;5.23;1.10;;;12.70;1.00;;;;;;5030303;28;20499;-91
2021/10/21 04:05:55;;;;;;;3.30;1.13;;;12.80;1.00;;;;;;5027728;28;20450;-87
2021/10/21 04:08:21;;;;;;;3.63;1.00;;;12.80;1.00;;;;;;5028939;28;20179;-88
2021/10/21 04:10:46;;;;;;;5.87;0.80;;;12.80;1.00;;;;;;5022270;28;20445;-88
2021/10/21 04:13:12;;;;;;;5.87;0.90;;;12.80;1.00;;;;;;5032257;28;20187;-87
2021/10/21 04:15:39;;;;;;;5.80;0.97;;;12.90;1.00;;;;;;5030185;28;20222;-91
2021/10/21 04:18:05;;;;;;;3.20;0.70;;;13.00;1.00;;;;;;5026698;28;20569;-89
2021/10/21 04:20:31;;;;;;;8.83;1.13;;;13.00;1.00;;;;;;5029929;28;20444;-89
2021/10/21 04:22:56;;;;;;;4.40;0.93;;;13.00;1.00;;;;;;5026915;28;20494;-92
2021/10/21 04:25:22;;;;;;;6.63;1.40;;;13.00;1.00;;;;;;5032180;28;20274;-88
2021/10/21 04:27:48;;;;;;;6.20;1.20;;;13.10;1.00;;;;;;5023693;28;20670;-92
2021/10/21 04:30:13;;;;;;;2.43;0.93;;;13.00;1.00;;;;;;5029888;28;20190;-88
2021/10/21 04:32:40;;;;;;;4.10;0.87;;;13.10;1.00;;;;;;5033227;28;20191;-89
2021/10/21 04:35:06;;;;;;;3.97;0.90;;;13.00;1.00;;;;;;5031954;28;20187;-88
2021/10/21 04:37:32;;;;;;;6.90;1.27;;;12.90;1.00;;;;;;5031857;28;20490;-87
2021/10/21 04:39:58;;;;;;;6.00;0.70;;;12.90;1.00;;;;;;5023260;28;20501;-89
2021/10/21 04:42:23;;;;;;;2.43;0.90;;;12.90;1.00;;;;;;5036086;28;20210;-86
2021/10/21 04:44:49;;;;;;;1.80;0.77;;;12.90;1.00;;;;;;5029253;28;20673;-89
2021/10/21 04:47:15;;;;;;;3.90;0.70;;;12.90;1.00;;;;;;5034532;28;20207;-86
2021/10/21 04:49:43;;;;;;;4.00;0.80;;;12.90;1.00;;;;;;5029010;28;20290;-91
2021/10/21 04:52:09;;;;;;;2.70;0.70;;;12.90;1.00;;;;;;5027556;28;20662;-84
2021/10/21 04:54:35;;;;;;;2.37;0.80;;;12.90;1.00;;;;;;5028172;28;20445;-89
2021/10/21 04:57:00;;;;;;;4.03;0.77;;;12.80;1.00;;;;;;5028707;28;20757;-88
2021/10/21 04:59:26;;;;;;;2.90;0.83;;;12.70;1.00;;;;;;5033437;28;20183;-84
2021/10/21 05:01:52;;;;;;;1.40;0.80;;;12.70;1.00;;;;;;5027928;28;20221;-85
2021/10/21 05:04:17;;;;;;;1.50;0.73;;;12.70;1.00;;;;;;5013783;28;20190;-85
2021/10/21 05:06:43;;;;;;;4.70;0.70;;;12.70;1.00;;;;;;5033091;28;20183;-88
2021/10/21 05:09:09;;;;;;;4.40;1.00;;;12.70;1.00;;;;;;5032916;28;20184;-85
2021/10/21 05:11:35;;;;;;;3.73;0.67;;;12.80;1.00;;;;;;5032173;28;20187;-86
2021/10/21 05:14:00;;;;;;;3.37;0.80;;;12.70;1.00;;;;;;5035817;28;20194;-88
2021/10/21 05:16:26;;;;;;;6.53;0.80;;;12.50;1.00;;;;;;5039800;28;20282;-86
2021/10/21 05:18:51;;;;;;;1.73;0.73;;;12.40;1.00;;;;;;5037027;28;20176;-86
2021/10/21 05:21:17;;;;;;;2.30;0.70;;;12.30;1.00;;;;;;5037325;28;20558;-85
2021/10/21 05:23:43;;;;;;;2.03;0.70;;;12.20;1.00;;;;;;5041654;28;20194;-85
2021/10/21 05:26:08;;;;;;;2.40;0.97;;;12.20;1.00;;;;;;5040332;28;20622;-87
2021/10/21 05:28:34;;;;;;;1.40;0.60;;;12.20;1.00;;;;;;5041957;28;20179;-85
2021/10/21 05:31:00;;;;;;;1.30;0.60;;;12.10;1.00;;;;;;5032212;28;20575;-85
2021/10/21 05:33:26;;;;;;;1.53;0.80;;;12.00;1.00;;;;;;5037433;28;21871;-87
2021/10/21 05:35:52;;;;;;;1.07;0.60;;;11.80;1.00;;;;;;5040901;28;20179;-92
2021/10/21 05:38:18;;;;;;;1.60;0.70;;;11.60;1.00;;;;;;5042196;28;20565;-86
2021/10/21 05:40:43;;;;;;;1.80;1.00;;;11.60;1.00;;;;;;5038738;28;20548;-88
2021/10/21 05:43:09;;;;;;;2.23;0.83;;;11.60;1.00;;;;;;5041441;28;20183;-86
2021/10/21 05:45:35;;;;;;;2.40;1.10;;;11.60;1.00;;;;;;5038406;28;20547;-87
2021/10/21 05:48:00;;;;;;;1.87;0.97;;;11.60;1.00;;;;;;5037527;28;20226;-87
2021/10/21 05:50:26;;;;;;;1.37;1.00;;;11.60;1.00;;;;;;5034879;28;20179;-86
2021/10/21 05:52:52;;;;;;;1.30;0.70;;;11.70;1.00;;;;;;5036996;28;20568;-87
2021/10/21 05:55:17;;;;;;;2.10;0.90;;;11.70;1.00;;;;;;5034697;28;20189;-85
2021/10/21 05:57:43;;;;;;;5.20;1.20;;;11.70;1.00;;;;;;5040246;28;20222;-86
2021/10/21 06:00:09;;;;;;;8.83;1.00;;;11.70;1.00;;;;;;5038601;28;20182;-87
2021/10/21 06:02:38;;;;;;;2.33;0.80;;;11.70;1.00;;;;;;5032266;28;20238;-86
2021/10/21 06:05:05;;;;;;;2.30;0.67;;;11.70;1.00;;;;;;5036384;28;20887;-87
2021/10/21 06:07:30;;;;;;;2.60;1.00;;;11.70;1.00;;;;;;5040307;28;20183;-84
2021/10/21 06:09:57;;;;;;;2.80;1.07;;;11.60;1.00;;;;;;5040217;28;20464;-86
2021/10/21 06:12:25;;;;;;;2.53;0.83;;;11.40;1.00;;;;;;5022563;28;20546;-87
2021/10/21 06:14:51;;;;;;;1.47;0.83;;;11.30;49.10;;;;;;5028457;28;22201;-86
2021/10/21 06:17:18;;;;;;;1.40;0.80;;;11.10;99.90;;;;;;5026492;28;20499;-85
2021/10/21 06:19:44;;;;;;;1.50;0.73;;;11.00;99.90;;;;;;5027565;28;21085;-86
2021/10/21 06:22:12;;;;;;;1.40;1.00;;;10.90;99.90;;;;;;5031056;28;20453;-85
2021/10/21 06:24:37;;;;;;;2.97;0.97;;;10.90;99.90;;;;;;5031477;28;20844;-88
2021/10/21 06:27:03;;;;;;;3.93;0.97;;;10.80;99.90;;;;;;5030409;28;20441;-88
2021/10/21 06:29:29;;;;;;;1.93;0.80;;;10.80;99.90;;;;;;5033344;28;20187;-87
2021/10/21 06:31:55;;;;;;;1.00;0.80;;;10.80;99.90;;;;;;5030734;28;20237;-85
2021/10/21 06:34:21;;;;;;;1.37;0.93;;;10.90;99.90;;;;;;5030007;28;20826;-87
2021/10/21 06:36:47;;;;;;;2.03;1.40;;;10.80;99.90;;;;;;5028056;28;20223;-85
2021/10/21 06:39:19;;;;;;;3.50;1.80;;;10.70;99.90;;;;;;5028659;28;20199;-86
2021/10/21 06:41:45;;;;;;;3.87;2.50;;;10.70;1.00;;;;;;5030130;28;20487;-88
2021/10/21 06:44:14;;;;;;;4.33;3.00;;;10.70;1.00;;;;;;5028432;28;20449;-88
2021/10/21 06:46:40;;;;;;;4.87;2.93;;;10.70;1.00;;;;;;5028957;28;20466;-88
2021/10/21 06:49:06;;;;;;;4.83;2.87;;;10.70;1.00;;;;;;5033612;28;20876;-87
2021/10/21 06:51:31;;;;;;;3.77;2.90;;;10.70;99.90;;;;;;5029153;28;20182;-86
2021/10/21 06:53:57;;;;;;;3.10;2.80;;;10.60;99.90;;;;;;5032370;28;20195;-90
2021/10/21 06:56:23;;;;;;;4.93;3.27;;;10.60;1.00;;;;;;5032126;28;20195;-86
2021/10/21 06:58:48;;;;;;;3.03;2.23;;;10.60;99.90;;;;;;5027811;28;20206;-88
2021/10/21 07:01:14;;;;;;;2.00;1.70;;;10.40;89.90;;;;;;5016276;28;21366;-90
2021/10/21 07:03:39;;;;;;;5.00;1.70;;;10.40;99.90;;;;;;5034033;28;20274;-88
2021/10/21 07:06:05;;;;;;;5.13;1.60;;;10.30;99.90;;;;;;5025825;28;20632;-84
2021/10/21 07:08:32;;;;;;;2.57;1.30;;;10.10;1.00;;;;;;5028415;28;20199;-86
2021/10/21 07:10:58;;;;;;;1.90;1.10;;;10.10;99.90;;;;;;5027257;28;20326;-89
2021/10/21 07:13:24;;;;;;;1.87;1.00;;;9.90;99.90;;;;;;5025707;28;20453;-85
2021/10/21 07:15:50;;;;;;;3.30;1.00;;;9.90;99.90;;;;;;5026294;28;20290;-88
2021/10/21 07:18:16;;;;;;;2.87;1.17;;;9.90;1.00;;;;;;5030685;28;20513;-87
2021/10/21 07:20:41;;;;;;;5.33;0.97;;;9.90;1.00;;;;;;5030480;28;20458;-86
2021/10/21 07:23:07;;;;;;;5.53;1.03;;;9.80;1.00;;;;;;5033851;28;20202;-85
2021/10/21 07:25:35;;;;;;;2.20;1.00;;;9.70;1.00;;;;;;5033932;28;20265;-89
2021/10/21 07:28:02;;;;;;;1.37;1.10;;;9.70;99.90;;;;;;5032910;28;20191;-86
2021/10/21 07:30:29;;;;;;;2.30;0.93;;;9.70;1.00;;;;;;5029744;28;20453;-86
2021/10/21 07:32:56;;;;;;;1.53;0.93;;;9.70;99.90;;;;;;5028640;28;20469;-86
2021/10/21 07:35:22;;;;;;;2.60;1.10;;;9.70;99.90;;;;;;5027685;28;20548;-85
2021/10/21 07:37:48;;;;;;;4.60;1.33;;;9.70;99.90;;;;;;5027619;28;20489;-85
2021/10/21 07:40:14;;;;;;;1.70;1.03;;;9.60;99.90;;;;;;5024861;28;20449;-85
2021/10/21 07:42:40;;;;;;;2.20;1.03;;;9.60;99.90;;;;;;5021573;28;20232;-89
2021/10/21 07:45:08;;;;;;;4.03;0.90;;;9.60;99.90;;;;;;5027865;28;20200;-89
2021/10/21 07:47:35;;;;;;;2.37;1.63;;;9.60;99.90;;;;;;5029986;28;20469;-87
2021/10/21 07:50:06;;;;;;;6.50;1.50;;;9.60;99.90;;;;;;5024584;28;20476;-86
2021/10/21 07:52:32;;;;;;;4.37;1.60;;;9.60;99.90;;;;;;5027511;28;20462;-87
2021/10/21 07:54:57;;;;;;;3.03;1.40;;;9.60;99.90;;;;;;5025139;28;20461;-88
2021/10/21 07:57:23;;;;;;;6.93;1.53;;;9.70;99.90;;;;;;5018379;28;20218;-88
2021/10/21 07:59:49;;;;;;;9.07;1.37;;;9.70;99.90;;;;;;5031444;28;20195;-89
2021/10/21 08:02:15;;;;;;;4.30;1.30;;;9.70;99.90;;;;;;5027468;28;20711;-87
2021/10/21 08:04:42;;;;;;;5.10;1.90;;;9.70;99.90;;;;;;5030543;28;20314;-86
2021/10/21 08:07:08;;;;;;;5.27;1.93;;;9.70;99.90;;;;;;5025988;28;20460;-85
2021/10/21 08:09:33;;;;;;;7.27;2.10;;;9.70;99.90;;;;;;5024563;28;20488;-87
2021/10/21 08:12:03;;;;;;;8.50;2.30;;;9.80;99.90;;;;;;5028717;28;20178;-89
2021/10/21 08:14:29;;;;;;;9.00;2.27;;;9.80;99.90;;;;;;5025176;28;20198;-86
2021/10/21 08:16:57;;;;;;;7.53;2.10;;;9.80;99.90;;;;;;5028510;28;20844;-87
2021/10/21 08:19:23;;;;;;;8.73;1.90;;;9.70;99.90;;;;;;5027719;28;20949;-86
2021/10/21 08:21:50;;;;;;;11.80;2.13;;;9.70;99.90;;;;;;5024385;28;20447;-86
2021/10/21 08:24:18;;;;;;;7.90;1.80;;;9.70;99.90;;;;;;5029137;28;20461;-86
2021/10/21 08:26:44;;;;;;;12.37;2.00;;;9.60;99.90;;;;;;5020619;28;20511;-85
2021/10/21 08:29:10;;;;;;;7.57;1.93;;;9.60;99.90;;;;;;5024894;28;20450;-89
2021/10/21 08:31:36;;;;;;;8.57;2.10;;;9.60;1.00;;;;;;5028842;28;20484;-89
2021/10/21 08:34:02;;;;;;;7.73;1.77;;;9.70;99.90;;;;;;5030620;28;20196;-85
2021/10/21 08:36:28;;;;;;;9.30;1.73;;;9.70;77.50;;;;;;5027202;28;20477;-84
2021/10/21 08:38:54;;;;;;;8.00;2.10;;;9.70;1.00;;;;;;5029114;28;20472;-84
2021/10/21 08:41:26;;;;;;;5.17;1.57;;;9.80;1.00;;;;;;5025166;28;20465;-87
2021/10/21 08:43:53;;;;;;;11.80;2.47;;;9.90;1.00;;;;;;5024402;28;20897;-84
2021/10/21 08:46:24;;;;;;;6.07;2.10;;;9.80;1.00;;;;;;5023111;28;20478;-85
2021/10/21 08:48:56;;;;;;;5.90;1.60;;;9.80;1.00;;;;;;5030867;28;20809;-89
2021/10/21 08:51:22;;;;;;;8.30;1.90;;;9.80;99.90;;;;;;5023002;28;20584;-84
2021/10/21 08:53:48;;;;;;;9.77;1.80;;;9.80;99.90;;;;;;5024595;28;20484;-86
2021/10/21 08:56:14;;;;;;;4.50;1.83;;;9.90;99.90;;;;;;5028003;28;20445;-85
2021/10/21 08:58:40;;;;;;;7.57;2.37;;;9.90;99.90;;;;;;5024347;28;20280;-84
2021/10/21 09:01:09;;;;;;;6.30;2.83;;;9.90;99.90;;;;;;5028479;28;20470;-87
2021/10/21 09:03:40;;;;;;;9.70;3.30;;;9.90;99.90;;;;;;5027452;28;20221;-86
2021/10/21 09:06:25;;;;;;;9.33;2.97;;;10.00;99.90;;;;;;5030935;28;21565;-85
2021/10/21 09:08:51;;;;;;;13.77;3.03;;;10.10;99.90;;;;;;5029577;28;20462;-88
2021/10/21 09:11:24;;;;;;;6.37;2.20;;;10.30;99.90;;;;;;5026938;28;24080;-84
2021/10/21 09:14:07;;;;;;;7.60;1.93;;;10.40;99.90;;;;;;5025140;28;20288;-85
2021/10/21 09:16:33;;;;;;;6.30;2.00;;;10.40;99.90;;;;;;5029056;28;20488;-86
2021/10/21 09:19:09;;;;;;;12.70;1.90;;;10.60;99.90;;;;;;5033166;28;21221;-87
2021/10/21 09:21:37;;;;;;;2.73;1.70;;;10.60;78.30;;;;;;5021665;28;20269;-82
2021/10/21 09:24:41;;;;;;;5.97;1.90;;;10.70;51.00;;;;;;5024995;28;20465;-84
2021/10/21 09:27:18;;;;;;;7.87;2.67;;;10.60;1.00;;;;;;5028746;28;20815;-86
2021/10/21 09:29:48;;;;;;;8.57;2.70;;;10.60;1.00;;;;;;5027059;28;20492;-82
2021/10/21 09:32:22;;;;;;;8.13;2.27;;;10.60;1.00;;;;;;5025511;28;20474;-85
2021/10/21 09:34:51;;;;;;;9.30;2.80;;;10.70;1.00;;;;;;5030638;28;20534;-85
2021/10/21 09:37:19;;;;;;;6.83;2.17;;;10.80;1.00;;;;;;5027839;28;20573;-83
2021/10/21 09:39:56;;;;;;;6.97;2.30;;;10.70;1.00;;;;;;5019452;28;20824;-84
2021/10/21 09:42:32;;;;;;;5.83;2.03;;;10.90;1.00;;;;;;5024556;28;20464;-85
2021/10/21 09:45:21;;;;;;;6.77;1.70;;;11.00;1.00;;;;;;5027178;28;20448;-81
2021/10/21 09:47:58;;;;;;;8.20;2.00;;;11.10;1.00;;;;;;5024859;28;20488;-82
2021/10/21 09:50:40;;;;;;;12.33;2.13;;;11.10;1.00;;;;;;5024617;28;20452;-83
2021/10/21 09:53:18;;;;;;;3.33;2.47;;;11.00;1.00;;;;;;5026229;28;20599;-84
2021/10/21 09:55:50;;;;;;;6.93;2.73;;;10.80;1.00;;;;;;5024575;28;20464;-86
2021/10/21 09:58:16;;;;;;;6.40;2.03;;;10.60;1.00;;;;;;5025655;28;21205;-84
2021/10/21 10:00:42;;;;;;;8.23;5.13;;;10.60;1.00;;;;;;5022770;28;20477;-85
2021/10/21 10:03:13;;;;;;;7.63;2.80;;;10.60;1.00;;;;;;5011326;28;20925;-85
2021/10/21 10:05:48;;;;;;;6.00;2.90;;;10.70;1.00;;;;;;5022125;28;20546;-85
2021/10/21 10:08:18;;;;;;;8.80;2.27;;;10.80;1.00;;;;;;5027474;28;20880;-85
2021/10/21 10:11:42;;;;;;;9.93;2.63;;;10.90;1.00;;;;;;5033497;28;20450;-84
2021/10/21 10:14:07;;;;;;;5.87;2.50;;;10.90;1.00;;;;;;4978873;28;20494;-86
2021/10/21 10:16:33;;;;;;;10.23;2.50;;;11.00;1.00;;;;;;5018205;28;20655;-84
2021/10/21 10:19:04;;;;;;;5.13;2.47;;;11.10;1.00;;;;;;5030104;28;20218;-87
2021/10/21 10:21:34;;;;;;;7.83;2.00;;;11.20;1.00;;;;;;5045854;28;21133;-86
2021/10/21 10:24:08;;;;;;;5.33;2.10;;;11.10;1.00;;;;;;5033193;28;20461;-85
2021/10/21 10:26:46;;;;;;;8.37;1.70;;;11.10;1.00;;;;;;5025656;28;20488;-86
2021/10/21 10:29:31;;;;;;;3.63;1.50;;;11.10;1.00;;;;;;5023655;28;20449;-86
2021/10/21 10:32:01;;;;;;;5.83;1.80;;;11.10;1.00;;;;;;5016962;28;20489;-91
2021/10/21 10:34:33;;;;;;;4.67;1.80;;;11.00;1.00;;;;;;5029052;28;20950;-86
2021/10/21 10:37:15;;;;;;;4.03;1.70;;;11.10;1.00;;;;;;5034031;28;20489;-85
2021/10/21 10:40:03;;;;;;;8.37;1.57;;;11.00;1.00;;;;;;5028324;28;20473;-88
2021/10/21 10:42:31;;;;;;;3.30;1.40;;;10.90;1.00;;;;;;5020685;28;20487;-84
2021/10/21 10:44:57;;;;;;;7.80;2.57;;;10.80;1.00;;;;;;5024692;28;20470;-85
2021/10/21 10:47:48;;;;;;;5.10;1.50;;;10.80;1.00;;;;;;5028170;28;20453;-87
2021/10/21 10:50:35;;;;;;;4.40;1.60;;;10.80;1.00;;;;;;5030983;28;20887;-88
2021/10/21 10:53:07;;;;;;;2.67;1.10;;;10.80;1.00;;;;;;5029650;28;20540;-83
2021/10/21 10:55:43;;;;;;;3.10;1.00;;;10.80;1.00;;;;;;5033216;28;20821;-84
2021/10/21 10:58:16;;;;;;;5.17;1.40;;;10.70;1.00;;;;;;5032323;28;20472;-85
2021/10/21 11:00:49;;;;;;;5.40;1.33;;;10.70;1.00;;;;;;5029473;28;20445;-85
2021/10/21 11:03:33;;;;;;;4.20;1.10;;;10.60;1.00;;;;;;5031389;28;21042;-84
2021/10/21 11:06:08;;;;;;;8.90;1.40;;;10.40;1.00;;;;;;5031731;28;20533;-86
2021/10/21 11:09:06;;;;;;;5.57;1.67;;;10.30;1.00;;;;;;5028923;28;21436;-88
2021/10/21 11:11:58;;;;;;;2.83;1.20;;;10.20;1.00;;;;;;5032227;28;20481;-87
2021/10/21 11:14:33;;;;;;;4.73;1.73;;;10.20;1.00;;;;;;5024161;28;20549;-87
2021/10/21 11:16:58;;;;;;;3.37;1.20;;;10.10;1.00;;;;;;5033045;28;21095;-86
2021/10/21 11:19:36;;;;;;;4.43;1.33;;;10.10;1.00;;;;;;5027045;28;20453;-86
2021/10/21 11:22:03;;;;;;;5.57;1.30;;;10.20;1.00;;;;;;5032248;28;20248;-88
2021/10/21 11:24:45;;;;;;;3.23;1.17;;;10.30;1.00;;;;;;5030008;28;20458;-87
2021/10/21 11:27:12;;;;;;;4.40;1.30;;;10.40;1.00;;;;;;5030684;28;20456;-91
2021/10/21 11:29:37;;;;;;;5.87;1.43;;;10.50;1.00;;;;;;5031066;28;20457;-86
2021/10/21 11:32:08;;;;;;;2.20;1.10;;;10.70;1.00;;;;;;5018335;28;20460;-87
2021/10/21 11:34:35;;;;;;;7.20;1.43;;;10.90;1.00;;;;;;5027482;28;20203;-85
2021/10/21 11:37:01;;;;;;;7.47;1.50;;;10.90;1.00;;;;;;5032847;28;20492;-85
2021/10/21 11:39:37;;;;;;;7.57;1.50;;;11.10;1.00;;;;;;5026854;28;20964;-84
2021/10/21 11:42:12;;;;;;;5.53;1.50;;;11.20;1.00;;;;;;5026977;28;20477;-84
2021/10/21 11:44:38;;;;;;;7.40;1.70;;;11.20;1.00;;;;;;5027852;28;20619;-86
2021/10/21 11:47:06;;;;;;;4.10;1.33;;;11.20;1.00;;;;;;5030741;28;21050;-85
2021/10/21 11:49:37;;;;;;;2.80;1.00;;;11.10;1.00;;;;;;5025340;28;21105;-89
2021/10/21 11:52:17;;;;;;;4.43;1.20;;;11.10;1.00;;;;;;5024435;28;20931;-85
2021/10/21 11:54:44;;;;;;;3.13;0.90;;;11.10;1.00;;;;;;5009707;28;20465;-85
2021/10/21 11:57:09;;;;;;;7.53;2.73;;;11.30;1.00;;;;;;5019785;28;20502;-85
2021/10/21 11:59:37;;;;;;;6.07;1.20;;;11.40;1.00;;;;;;5018877;28;21041;-86
2021/10/21 12:02:16;;;;;;;2.97;0.97;;;11.40;1.00;;;;;;5024496;28;20558;-84
2021/10/21 12:04:43;;;;;;;1.77;0.70;;;11.50;1.00;;;;;;5026103;28;20483;-84
2021/10/21 12:07:10;;;;;;;2.17;0.97;;;11.50;1.00;;;;;;5024836;28;20753;-83
2021/10/21 12:09:38;;;;;;;4.90;1.00;;;11.60;1.00;;;;;;5024947;28;20455;-84
2021/10/21 12:12:09;;;;;;;2.13;0.93;;;11.60;1.00;;;;;;5026982;28;20457;-83
2021/10/21 12:14:36;;;;;;;2.93;0.90;;;11.60;1.00;;;;;;5028837;28;20460;-85
2021/10/21 12:17:05;;;;;;;4.00;1.13;;;11.50;1.00;;;;;;5017344;28;20845;-85
2021/10/21 12:19:30;;;;;;;2.73;1.03;;;11.50;1.00;;;;;;5029562;28;20552;-87
2021/10/21 12:22:18;;;;;;;2.23;0.93;;;11.50;1.00;;;;;;5027796;28;21019;-85
2021/10/21 12:24:47;;;;;;;1.60;0.90;;;11.60;1.00;;;;;;5029141;28;20198;-83
2021/10/21 12:27:26;;;;;;;4.63;0.87;;;11.90;1.00;;;;;;5028313;28;20455;-85
2021/10/21 12:30:01;;;;;;;1.97;0.97;;;11.70;1.00;;;;;;5016292;28;21029;-85
2021/10/21 12:32:27;;;;;;;2.80;0.80;;;11.60;1.00;;;;;;5024800;28;20749;-83
2021/10/21 12:35:08;;;;;;;4.17;0.90;;;11.50;1.00;;;;;;5009294;28;20900;-82
2021/10/21 12:37:39;;;;;;;4.07;1.50;;;11.30;1.00;;;;;;5023516;28;20480;-83
2021/10/21 12:40:23;;;;;;;3.70;1.07;;;10.90;1.00;;;;;;5014715;28;20442;-86
2021/10/21 12:42:49;;;;;;;2.73;0.77;;;10.40;1.00;;;;;;5015957;28;20468;-87
2021/10/21 12:45:22;;;;;;;7.30;1.00;;;9.70;6.20;;;;;;5016919;28;20467;-89
2021/10/21 12:47:48;;;;;;;8.80;0.90;;;9.40;30.30;;;;;;5009699;28;20267;-87
2021/10/21 12:50:18;;;;;;;1.60;0.77;;;9.30;99.90;;;;;;5021473;28;20446;-88
2021/10/21 12:52:46;;;;;;;4.00;1.00;;;9.30;99.90;;;;;;5014849;28;20472;-85
2021/10/21 12:55:17;;;;;;;1.37;0.90;;;9.30;99.90;;;;;;5017868;28;20461;-88
2021/10/21 12:57:51;;;;;;;1.87;0.80;;;9.40;99.90;;;;;;5020433;28;20535;-86
2021/10/21 13:00:30;;;;;;;2.70;0.80;;;9.50;99.90;;;;;;5018674;28;20469;-86
2021/10/21 13:03:01;;;;;;;2.40;1.00;;;9.40;99.90;;;;;;5013595;28;20465;-85